createdAt,value
2019-04-03T00:00:22.965Z,6.40
2019-04-03T00:02:51.287Z,6.70
2019-04-03T00:05:19.549Z,6.63
2019-04-03T00:07:47.835Z,6.50
2019-04-03T00:10:16.254Z,6.67
2019-04-03T00:12:44.641Z,6.30
2019-04-03T00:15:13.658Z,6.43
2019-04-03T00:17:45.270Z,6.13
2019-04-03T00:20:12.528Z,6.77
2019-04-03T00:22:40.901Z,6.70
2019-04-03T00:25:09.154Z,6.83
2019-04-03T00:27:37.446Z,6.57
2019-04-03T00:30:06.435Z,6.37
2019-04-03T00:32:34.720Z,6.23
2019-04-03T00:35:03.692Z,6.50
2019-04-03T00:37:31.987Z,6.80
2019-04-03T00:40:00.266Z,6.70
2019-04-03T00:42:29.661Z,6.53
2019-04-03T00:44:58.050Z,6.67
2019-04-03T00:47:26.324Z,7.20
2019-04-03T00:49:56.220Z,6.90
2019-04-03T00:52:25.910Z,7.23
2019-04-03T00:54:56.363Z,7.30
2019-04-03T00:57:26.162Z,6.30
2019-04-03T00:59:56.497Z,6.10
2019-04-03T01:02:27.832Z,7.10
2019-04-03T01:04:58.085Z,6.23
2019-04-03T01:07:25.445Z,6.40
2019-04-03T01:09:53.731Z,6.47
2019-04-03T01:12:22.337Z,6.83
2019-04-03T01:14:50.646Z,6.73
2019-04-03T01:17:19.059Z,6.70
2019-04-03T01:19:47.387Z,6.77
2019-04-03T01:22:15.643Z,6.70
2019-04-03T01:24:43.995Z,6.43
2019-04-03T01:27:12.460Z,6.33
2019-04-03T01:29:42.631Z,6.40
2019-04-03T01:32:10.752Z,5.63
2019-04-03T01:34:39.024Z,6.30
2019-04-03T01:37:07.810Z,5.97
2019-04-03T01:39:36.091Z,5.93
2019-04-03T01:42:04.363Z,6.00
2019-04-03T01:44:33.298Z,5.47
2019-04-03T01:47:01.563Z,5.17
2019-04-03T01:49:29.838Z,5.73
2019-04-03T01:51:58.963Z,5.30
2019-04-03T01:54:28.228Z,5.17
2019-04-03T01:56:56.534Z,6.30
2019-04-03T01:59:24.819Z,5.90
2019-04-03T02:01:53.311Z,5.70
2019-04-03T02:04:21.593Z,5.27
2019-04-03T02:06:49.859Z,5.00
2019-04-03T02:09:18.122Z,5.10
2019-04-03T02:11:47.606Z,5.00
2019-04-03T02:14:16.410Z,5.27
2019-04-03T02:16:44.821Z,5.63
2019-04-03T02:19:13.231Z,5.03
2019-04-03T02:21:41.616Z,5.37
2019-04-03T02:24:10.110Z,5.20
2019-04-03T02:26:38.394Z,5.27
2019-04-03T02:29:08.514Z,5.40
2019-04-03T02:31:36.659Z,5.13
2019-04-03T02:34:04.943Z,5.60
2019-04-03T02:36:33.283Z,5.20
2019-04-03T02:39:01.643Z,4.57
2019-04-03T02:41:30.386Z,4.63
2019-04-03T02:43:58.638Z,4.70
2019-04-03T02:46:28.547Z,5.20
2019-04-03T02:48:57.254Z,4.73
2019-04-03T02:51:25.527Z,4.77
2019-04-03T02:53:53.784Z,4.93
2019-04-03T02:56:22.053Z,4.67
2019-04-03T02:58:53.385Z,4.70
2019-04-03T03:01:20.307Z,5.20
2019-04-03T03:03:49.919Z,5.27
2019-04-03T03:06:18.494Z,4.73
2019-04-03T03:08:46.796Z,4.50
2019-04-03T03:11:16.137Z,4.23
2019-04-03T03:13:44.483Z,4.80
2019-04-03T03:16:14.579Z,4.50
2019-04-03T03:18:42.723Z,6.27
2019-04-03T03:21:12.763Z,4.37
2019-04-03T03:23:41.512Z,4.33
2019-04-03T03:26:09.940Z,4.70
2019-04-03T03:28:38.307Z,4.87
2019-04-03T03:31:07.838Z,4.73
2019-04-03T03:33:40.051Z,4.83
2019-04-03T03:36:07.223Z,4.60
2019-04-03T03:38:38.221Z,4.40
2019-04-03T03:41:05.755Z,4.33
2019-04-03T03:43:37.754Z,4.33
2019-04-03T03:46:04.545Z,4.87
2019-04-03T03:48:32.921Z,4.10
2019-04-03T03:51:01.274Z,4.67
2019-04-03T03:53:29.564Z,4.10
2019-04-03T03:55:59.630Z,4.03
2019-04-03T03:58:28.517Z,4.10
2019-04-03T04:00:59.351Z,4.57
2019-04-03T04:03:26.985Z,4.77
2019-04-03T04:05:56.400Z,4.37
2019-04-03T04:08:25.225Z,3.73
2019-04-03T04:10:58.134Z,4.40
2019-04-03T04:13:23.519Z,4.67
2019-04-03T04:15:51.784Z,4.50
2019-04-03T04:18:22.390Z,4.47
2019-04-03T04:20:50.104Z,4.17
2019-04-03T04:23:18.676Z,4.30
2019-04-03T04:25:47.141Z,4.23
2019-04-03T04:28:15.398Z,4.07
2019-04-03T04:30:44.446Z,4.27
2019-04-03T04:33:12.734Z,4.30
2019-04-03T04:35:41.454Z,4.43
2019-04-03T04:38:09.707Z,5.50
2019-04-03T04:40:38.451Z,5.13
2019-04-03T04:43:08.264Z,4.67
2019-04-03T04:45:36.730Z,4.63
2019-04-03T04:48:05.627Z,4.27
2019-04-03T04:50:33.933Z,4.33
2019-04-03T04:53:02.268Z,5.00
2019-04-03T04:55:31.589Z,4.70
2019-04-03T04:58:01.058Z,4.40
2019-04-03T05:00:30.305Z,3.93
2019-04-03T05:03:00.949Z,4.43
2019-04-03T05:05:30.705Z,4.07
2019-04-03T05:07:59.814Z,4.40
2019-04-03T05:10:28.690Z,4.47
2019-04-03T05:12:57.246Z,3.83
2019-04-03T05:15:25.515Z,4.17
2019-04-03T05:17:53.849Z,4.67
2019-04-03T05:20:22.250Z,4.07
2019-04-03T05:22:50.509Z,4.60
2019-04-03T05:25:18.963Z,4.40
2019-04-03T05:27:47.339Z,4.63
2019-04-03T05:30:29.432Z,4.63
2019-04-03T05:32:58.529Z,5.07
2019-04-03T05:35:26.844Z,5.10
2019-04-03T05:37:55.231Z,4.80
2019-04-03T05:40:25.722Z,4.17
2019-04-03T05:42:53.885Z,4.30
2019-04-03T05:45:22.317Z,4.37
2019-04-03T05:47:51.056Z,4.50
2019-04-03T05:50:19.499Z,4.47
2019-04-03T05:52:47.982Z,4.40
2019-04-03T05:55:16.331Z,3.93
2019-04-03T05:57:45.709Z,3.80
2019-04-03T06:00:14.555Z,4.67
2019-04-03T06:02:42.822Z,4.10
2019-04-03T06:05:12.756Z,3.70
2019-04-03T06:07:41.071Z,3.70
2019-04-03T06:10:09.450Z,4.10
2019-04-03T06:12:37.912Z,3.80
2019-04-03T06:15:09.284Z,3.93
2019-04-03T06:17:37.143Z,4.10
2019-04-03T06:20:06.435Z,3.80
2019-04-03T06:22:34.798Z,3.70
2019-04-03T06:25:03.483Z,3.77
2019-04-03T06:27:31.876Z,3.27
2019-04-03T06:30:00.138Z,3.73
2019-04-03T06:32:29.457Z,3.60
2019-04-03T06:34:58.169Z,3.60
2019-04-03T06:37:26.494Z,3.57
2019-04-03T06:39:54.758Z,4.23
2019-04-03T06:42:23.255Z,3.57
2019-04-03T06:44:53.830Z,3.87
2019-04-03T06:47:21.851Z,3.17
2019-04-03T06:49:50.317Z,3.50
2019-04-03T06:52:19.448Z,3.93
2019-04-03T06:54:48.567Z,3.63
2019-04-03T06:57:16.818Z,3.60
2019-04-03T06:59:46.430Z,3.17
2019-04-03T07:02:15.091Z,3.17
2019-04-03T07:04:43.416Z,3.63
2019-04-03T07:07:11.688Z,3.27
2019-04-03T07:09:40.104Z,3.53
2019-04-03T07:12:08.410Z,2.90
2019-04-03T07:14:36.683Z,3.13
2019-04-03T07:17:06.005Z,3.33
2019-04-03T07:19:34.563Z,3.00
2019-04-03T07:22:02.826Z,3.50
2019-04-03T07:24:31.856Z,3.50
2019-04-03T07:27:00.839Z,3.00
2019-04-03T07:29:29.123Z,2.87
2019-04-03T07:31:57.378Z,3.60
2019-04-03T07:34:25.681Z,3.30
2019-04-03T07:36:54.117Z,3.00
2019-04-03T07:39:22.640Z,3.03
2019-04-03T07:41:53.543Z,3.30
2019-04-03T07:44:21.000Z,2.67
2019-04-03T07:46:49.326Z,3.40
2019-04-03T07:49:17.627Z,2.97
2019-04-03T07:51:45.971Z,2.87
2019-04-03T07:54:14.251Z,3.10
2019-04-03T07:56:42.567Z,2.90
2019-04-03T07:59:10.863Z,3.57
2019-04-03T08:01:41.297Z,2.97
2019-04-03T08:04:09.119Z,2.67
2019-04-03T08:06:37.393Z,3.23
2019-04-03T08:09:09.746Z,2.97
2019-04-03T08:11:37.894Z,3.00
2019-04-03T08:14:06.761Z,3.07
2019-04-03T08:16:36.166Z,3.10
2019-04-03T08:19:04.442Z,2.80
2019-04-03T08:21:32.722Z,3.33
2019-04-03T08:24:00.965Z,3.03
2019-04-03T08:26:29.252Z,2.80
2019-04-03T08:29:01.025Z,2.60
2019-04-03T08:31:27.572Z,2.60
2019-04-03T08:33:58.745Z,2.50
2019-04-03T08:36:26.743Z,2.83
2019-04-03T08:38:55.608Z,2.70
2019-04-03T08:41:24.909Z,2.73
2019-04-03T08:43:53.363Z,2.97
2019-04-03T08:46:21.658Z,2.87
2019-04-03T08:48:49.991Z,2.60
2019-04-03T08:51:18.354Z,2.73
2019-04-03T08:53:46.631Z,2.73
2019-04-03T08:56:16.889Z,2.73
2019-04-03T08:58:45.992Z,2.50
2019-04-03T09:01:14.832Z,2.50
2019-04-03T09:03:43.862Z,2.57
2019-04-03T09:06:13.174Z,2.57
2019-04-03T09:08:41.426Z,2.80
2019-04-03T09:11:09.782Z,2.77
2019-04-03T09:13:38.063Z,2.57
2019-04-03T09:16:06.788Z,2.60
2019-04-03T09:18:38.354Z,2.30
2019-04-03T09:21:06.578Z,2.50
2019-04-03T09:23:34.826Z,2.40
2019-04-03T09:26:03.876Z,2.50
2019-04-03T09:28:32.255Z,2.43
2019-04-03T09:31:00.846Z,2.50
2019-04-03T09:33:29.884Z,2.40
2019-04-03T09:35:59.821Z,2.40
2019-04-03T09:38:28.585Z,2.17
2019-04-03T09:40:56.974Z,2.30
2019-04-03T09:43:25.693Z,2.20
2019-04-03T09:45:53.959Z,2.80
2019-04-03T09:48:22.233Z,2.20
2019-04-03T09:50:50.487Z,2.60
2019-04-03T09:53:18.794Z,2.33
2019-04-03T09:55:47.044Z,2.30
2019-04-03T09:58:15.306Z,2.73
2019-04-03T10:00:43.661Z,2.40
2019-04-03T10:03:12.010Z,2.37
2019-04-03T10:05:40.267Z,2.07
2019-04-03T10:08:09.164Z,2.20
2019-04-03T10:10:37.997Z,2.30
2019-04-03T10:13:06.391Z,2.33
2019-04-03T10:15:34.638Z,2.20
2019-04-03T10:18:03.200Z,2.43
2019-04-03T10:20:31.528Z,2.33
2019-04-03T10:22:59.816Z,2.37
2019-04-03T10:25:28.439Z,2.13
2019-04-03T10:27:56.854Z,2.40
2019-04-03T10:30:25.207Z,2.37
2019-04-03T10:32:53.597Z,2.50
2019-04-03T10:35:22.033Z,1.83
2019-04-03T10:37:50.286Z,2.20
2019-04-03T10:40:18.839Z,2.37
2019-04-03T10:42:47.229Z,2.20
2019-04-03T10:45:16.625Z,2.27
2019-04-03T10:47:44.994Z,1.90
2019-04-03T10:50:13.296Z,2.20
2019-04-03T10:52:44.083Z,2.20
2019-04-03T10:55:11.537Z,2.10
2019-04-03T10:57:39.794Z,1.80
2019-04-03T11:00:10.126Z,2.00
2019-04-03T11:02:38.707Z,2.20
2019-04-03T11:05:08.078Z,2.10
2019-04-03T11:07:36.327Z,1.97
2019-04-03T11:10:06.914Z,1.93
2019-04-03T11:12:35.518Z,1.73
2019-04-03T11:15:06.856Z,1.80
2019-04-03T11:17:35.170Z,1.87
2019-04-03T11:20:05.214Z,2.10
2019-04-03T11:22:40.417Z,1.87
2019-04-03T11:25:04.586Z,2.00
2019-04-03T11:27:42.502Z,1.90
2019-04-03T11:30:03.332Z,2.10
2019-04-03T11:32:31.673Z,2.03
2019-04-03T11:34:59.961Z,1.83
2019-04-03T11:37:28.368Z,1.80
2019-04-03T11:40:03.958Z,2.03
2019-04-03T11:42:29.404Z,2.20
2019-04-03T11:44:57.331Z,2.53
2019-04-03T11:47:25.711Z,2.93
2019-04-03T11:49:54.016Z,2.87
2019-04-03T11:52:22.462Z,14.97
2019-04-03T11:54:52.807Z,9.90
2019-04-03T11:57:20.835Z,11.43
2019-04-03T11:59:49.178Z,14.77
2019-04-03T12:02:17.732Z,12.80
2019-04-03T12:04:46.059Z,10.50
2019-04-03T12:07:14.342Z,11.67
2019-04-03T12:09:42.750Z,7.83
2019-04-03T12:12:11.276Z,8.03
2019-04-03T12:14:39.678Z,8.47
2019-04-03T12:17:07.950Z,8.37
2019-04-03T12:19:37.159Z,7.67
2019-04-03T12:22:06.158Z,8.30
2019-04-03T12:24:37.514Z,7.40
2019-04-03T12:27:05.780Z,7.30
2019-04-03T12:29:34.230Z,7.20
2019-04-03T12:32:03.538Z,7.27
2019-04-03T12:34:32.346Z,7.83
2019-04-03T12:37:00.607Z,7.10
2019-04-03T12:39:28.895Z,6.77
2019-04-03T12:41:57.325Z,6.03
2019-04-03T12:44:25.676Z,6.40
2019-04-03T12:46:54.017Z,6.53
2019-04-03T12:49:23.395Z,6.97
2019-04-03T12:51:52.052Z,6.70
2019-04-03T12:54:21.293Z,6.10
2019-04-03T12:56:50.369Z,5.90
2019-04-03T12:59:20.835Z,6.13
2019-04-03T13:01:49.754Z,5.90
2019-04-03T13:04:18.586Z,6.23
2019-04-03T13:06:46.866Z,6.17
2019-04-03T13:09:15.220Z,6.43
2019-04-03T13:11:43.474Z,6.20
2019-04-03T13:14:22.494Z,6.97
2019-04-03T13:16:42.599Z,5.97
2019-04-03T13:19:11.010Z,5.60
2019-04-03T13:21:39.789Z,5.37
2019-04-03T13:24:10.929Z,5.87
2019-04-03T13:26:39.147Z,5.97
2019-04-03T13:29:08.922Z,5.87
2019-04-03T13:31:37.492Z,6.13
2019-04-03T13:34:05.815Z,6.10
2019-04-03T13:36:34.455Z,5.80
2019-04-03T13:39:04.469Z,6.10
2019-04-03T13:41:34.321Z,6.20
2019-04-03T13:44:03.191Z,6.23
2019-04-03T13:46:32.452Z,5.43
2019-04-03T13:49:00.903Z,6.00
2019-04-03T13:51:29.179Z,5.80
2019-04-03T13:53:57.530Z,5.90
2019-04-03T13:56:25.846Z,5.53
2019-04-03T13:58:54.696Z,5.63
2019-04-03T14:01:23.170Z,5.50
2019-04-03T14:03:52.066Z,5.23
2019-04-03T14:06:20.886Z,5.03
2019-04-03T14:08:49.962Z,5.03
2019-04-03T14:11:18.456Z,5.37
2019-04-03T14:13:47.118Z,5.17
2019-04-03T14:16:21.735Z,5.20
2019-04-03T14:18:45.869Z,5.83
2019-04-03T14:21:14.215Z,4.83
2019-04-03T14:23:42.697Z,5.60
2019-04-03T14:26:13.854Z,4.90
2019-04-03T14:28:42.062Z,4.83
2019-04-03T14:31:10.573Z,5.10
2019-04-03T14:33:44.246Z,5.10
2019-04-03T14:36:09.226Z,5.03
2019-04-03T14:38:37.575Z,4.90
2019-04-03T14:41:06.181Z,4.57
2019-04-03T14:43:35.230Z,5.63
2019-04-03T14:46:04.018Z,5.33
2019-04-03T14:48:32.596Z,4.37
2019-04-03T14:51:01.054Z,4.30
2019-04-03T14:53:29.346Z,5.10
2019-04-03T14:55:59.821Z,4.53
2019-04-03T14:58:28.128Z,4.83
2019-04-03T15:00:56.483Z,4.93
2019-04-03T15:03:25.905Z,4.80
2019-04-03T15:05:54.798Z,4.90
2019-04-03T15:08:23.921Z,4.93
2019-04-03T15:10:52.719Z,4.83
2019-04-03T15:13:21.052Z,4.50
2019-04-03T15:15:49.876Z,4.27
2019-04-03T15:18:18.665Z,4.07
2019-04-03T15:20:49.279Z,3.90
2019-04-03T15:23:17.437Z,5.67
2019-04-03T15:25:47.535Z,4.63
2019-04-03T15:28:16.296Z,4.83
2019-04-03T15:30:44.716Z,4.53
2019-04-03T15:33:13.010Z,4.57
2019-04-03T15:35:41.378Z,4.43
2019-04-03T15:38:12.505Z,4.63
2019-04-03T15:40:39.711Z,4.43
2019-04-03T15:43:10.842Z,4.70
2019-04-03T15:45:37.988Z,4.00
2019-04-03T15:48:06.247Z,4.23
2019-04-03T15:50:37.648Z,4.80
2019-04-03T15:53:04.633Z,4.13
2019-04-03T15:55:32.990Z,4.20
2019-04-03T15:58:01.322Z,3.83
2019-04-03T16:00:29.954Z,4.07
2019-04-03T16:02:58.229Z,4.13
2019-04-03T16:05:30.121Z,4.00
2019-04-03T16:07:56.494Z,4.03
2019-04-03T16:10:24.747Z,4.10
2019-04-03T16:12:53.165Z,3.80
2019-04-03T16:15:22.681Z,3.77
2019-04-03T16:17:51.796Z,4.27
2019-04-03T16:20:20.350Z,3.90
2019-04-03T16:22:49.221Z,4.00
2019-04-03T16:25:17.887Z,3.77
2019-04-03T16:27:46.859Z,3.80
2019-04-03T16:30:16.534Z,3.50
2019-04-03T16:32:45.127Z,3.77
2019-04-03T16:35:14.570Z,3.70
2019-04-03T16:37:43.739Z,3.70
2019-04-03T16:40:12.760Z,4.00
2019-04-03T16:42:41.026Z,3.53
2019-04-03T16:45:09.766Z,3.87
2019-04-03T16:47:38.065Z,3.80
2019-04-03T16:50:07.837Z,3.47
2019-04-03T16:52:37.658Z,3.87
2019-04-03T16:55:07.108Z,3.40
2019-04-03T16:57:35.686Z,3.33
2019-04-03T17:00:08.505Z,3.77
2019-04-03T17:02:37.063Z,3.77
2019-04-03T17:05:10.130Z,3.40
2019-04-03T17:07:38.142Z,3.27
2019-04-03T17:10:09.361Z,3.47
2019-04-03T17:12:36.751Z,3.40
2019-04-03T17:15:06.678Z,3.57
2019-04-03T17:17:35.442Z,3.10
2019-04-03T17:20:05.823Z,3.77
2019-04-03T17:22:34.411Z,3.77
2019-04-03T17:25:03.376Z,3.60
2019-04-03T17:27:31.673Z,3.90
2019-04-03T17:30:00.034Z,3.13
2019-04-03T17:32:29.983Z,3.30
2019-04-03T17:34:58.342Z,3.80
2019-04-03T17:37:29.710Z,3.30
2019-04-03T17:39:56.607Z,3.60
2019-04-03T17:42:25.876Z,3.80
2019-04-03T17:44:54.330Z,3.40
2019-04-03T17:47:22.607Z,3.87
2019-04-03T17:49:50.871Z,3.33
2019-04-03T17:52:19.122Z,3.40
2019-04-03T17:54:47.399Z,3.20
2019-04-03T17:57:17.531Z,3.73
2019-04-03T17:59:48.848Z,3.03
2019-04-03T18:02:15.946Z,2.87
2019-04-03T18:04:44.278Z,3.07
2019-04-03T18:07:12.542Z,3.20
2019-04-03T18:09:42.019Z,3.20
2019-04-03T18:12:10.438Z,3.20
2019-04-03T18:14:38.702Z,3.40
2019-04-03T18:17:06.983Z,3.37
2019-04-03T18:19:37.599Z,3.53
2019-04-03T18:22:05.276Z,3.43
2019-04-03T18:24:33.522Z,3.33
2019-04-03T18:27:02.505Z,2.90
2019-04-03T18:29:31.435Z,2.90
2019-04-03T18:31:59.708Z,3.60
2019-04-03T18:34:27.956Z,3.27
2019-04-03T18:36:56.227Z,3.30
2019-04-03T18:39:24.499Z,3.20
2019-04-03T18:41:52.791Z,3.40
2019-04-03T18:44:22.374Z,3.30
2019-04-03T18:46:51.155Z,3.40
2019-04-03T18:49:19.446Z,3.70
2019-04-03T18:51:47.748Z,3.07
2019-04-03T18:54:16.074Z,3.57
2019-04-03T18:56:45.936Z,2.87
2019-04-03T18:59:15.414Z,3.20
2019-04-03T19:01:43.907Z,2.90
2019-04-03T19:04:12.242Z,2.97
2019-04-03T19:06:40.511Z,2.80
2019-04-03T19:09:09.970Z,3.07
2019-04-03T19:11:40.687Z,2.80
2019-04-03T19:14:08.533Z,3.13
2019-04-03T19:16:43.983Z,2.90
2019-04-03T19:19:08.266Z,2.50
2019-04-03T19:21:36.852Z,2.83
2019-04-03T19:24:05.103Z,2.60
2019-04-03T19:26:33.391Z,3.10
2019-04-03T19:29:04.709Z,3.33
2019-04-03T19:31:31.675Z,3.17
2019-04-03T19:33:59.997Z,3.47
2019-04-03T19:36:29.961Z,3.20
2019-04-03T19:38:58.344Z,2.57
2019-04-03T19:41:26.590Z,3.07
2019-04-03T19:43:54.886Z,3.07
2019-04-03T19:46:23.348Z,3.00
2019-04-03T19:48:51.815Z,2.60
2019-04-03T19:51:20.370Z,2.80
2019-04-03T19:53:58.702Z,2.97
2019-04-03T19:56:18.638Z,3.10
2019-04-03T19:58:46.987Z,2.77
2019-04-03T20:01:15.243Z,2.73
2019-04-03T20:03:44.224Z,2.80
2019-04-03T20:06:13.174Z,2.70
2019-04-03T20:08:41.471Z,3.10
2019-04-03T20:11:09.734Z,2.07
2019-04-03T20:13:39.641Z,3.20
2019-04-03T20:16:08.031Z,3.47
2019-04-03T20:18:36.299Z,2.60
2019-04-03T20:21:04.578Z,2.80
2019-04-03T20:23:32.890Z,2.60
2019-04-03T20:26:01.161Z,2.50
2019-04-03T20:28:29.489Z,2.70
2019-04-03T20:30:58.202Z,2.73
2019-04-03T20:33:26.470Z,2.90
2019-04-03T20:35:54.777Z,2.80
2019-04-03T20:38:23.095Z,2.40
2019-04-03T20:40:51.351Z,2.80
2019-04-03T20:43:19.647Z,2.63
2019-04-03T20:45:49.740Z,2.50
2019-04-03T20:48:18.180Z,2.93
2019-04-03T20:50:46.447Z,2.60
2019-04-03T20:53:16.789Z,2.13
2019-04-03T20:55:45.063Z,2.67
2019-04-03T20:58:13.344Z,2.73
2019-04-03T21:00:41.610Z,2.50
2019-04-03T21:03:12.575Z,2.47
2019-04-03T21:05:39.878Z,2.57
2019-04-03T21:08:09.030Z,2.53
2019-04-03T21:10:37.334Z,2.80
2019-04-03T21:13:06.834Z,3.00
2019-04-03T21:15:35.579Z,2.40
2019-04-03T21:18:03.842Z,2.30
2019-04-03T21:20:32.119Z,2.93
2019-04-03T21:23:02.972Z,2.20
2019-04-03T21:25:30.401Z,2.30
2019-04-03T21:27:58.688Z,2.13
2019-04-03T21:30:27.021Z,2.27
2019-04-03T21:32:55.276Z,2.20
2019-04-03T21:35:23.538Z,2.37
2019-04-03T21:37:51.790Z,2.60
2019-04-03T21:40:20.073Z,2.53
2019-04-03T21:42:48.355Z,2.47
2019-04-03T21:45:16.642Z,2.10
2019-04-03T21:47:44.975Z,2.60
2019-04-03T21:50:13.246Z,2.30
2019-04-03T21:52:41.523Z,1.80
2019-04-03T21:55:09.814Z,2.23
2019-04-03T21:57:38.686Z,2.30
2019-04-03T22:00:13.258Z,2.07
2019-04-03T22:02:40.606Z,2.20
2019-04-03T22:05:09.520Z,2.10
2019-04-03T22:07:37.781Z,1.97
2019-04-03T22:10:08.573Z,2.40
2019-04-03T22:12:36.704Z,2.27
2019-04-03T22:15:06.643Z,2.27
2019-04-03T22:17:34.939Z,2.70
2019-04-03T22:20:03.735Z,2.23
2019-04-03T22:22:33.805Z,2.10
2019-04-03T22:25:01.980Z,2.10
2019-04-03T22:27:30.282Z,2.10
2019-04-03T22:29:58.538Z,2.10
2019-04-03T22:32:26.805Z,2.60
2019-04-03T22:34:55.055Z,2.23
2019-04-03T22:37:23.326Z,1.90
2019-04-03T22:39:51.578Z,2.27
2019-04-03T22:42:19.850Z,2.17
2019-04-03T22:44:48.457Z,1.83
2019-04-03T22:47:16.846Z,1.97
2019-04-03T22:49:45.770Z,2.13
2019-04-03T22:52:14.033Z,1.90
2019-04-03T22:54:43.978Z,1.90
2019-04-03T22:57:12.273Z,1.67
2019-04-03T22:59:40.530Z,2.03
2019-04-03T23:02:08.806Z,1.83
2019-04-03T23:04:37.131Z,2.30
2019-04-03T23:07:05.388Z,2.13
2019-04-03T23:09:33.646Z,2.40
2019-04-03T23:12:03.073Z,2.07
2019-04-03T23:14:31.977Z,2.00
2019-04-03T23:17:00.338Z,1.80
2019-04-03T23:19:32.188Z,2.00
2019-04-03T23:21:59.294Z,1.80
2019-04-03T23:24:29.014Z,2.07
2019-04-03T23:26:57.867Z,1.83
2019-04-03T23:29:26.474Z,1.93
2019-04-03T23:31:54.754Z,1.90
2019-04-03T23:34:23.019Z,1.90
2019-04-03T23:36:52.436Z,1.80
2019-04-03T23:39:21.623Z,1.90
2019-04-03T23:41:49.900Z,2.50
2019-04-03T23:44:18.233Z,1.70
2019-04-03T23:46:46.558Z,1.80
2019-04-03T23:49:14.831Z,1.80
2019-04-03T23:51:43.084Z,1.83
2019-04-03T23:54:11.369Z,2.10
2019-04-03T23:56:39.650Z,1.87
2019-04-03T23:59:07.923Z,2.10
